sensor_id;sensor_type;location;lat;lon;timestamp;P1;durP1;ratioP1;P2;durP2;ratioP2
52564;SDS011;38460;53.106;7.004;2023-02-24T00:01:53;6.10;;;1.75;;
52564;SDS011;38460;53.106;7.004;2023-02-24T00:04:32;5.13;;;1.60;;
52564;SDS011;38460;53.106;7.004;2023-02-24T00:07:00;7.43;;;1.90;;
52564;SDS011;38460;53.106;7.004;2023-02-24T00:09:27;7.05;;;1.80;;
52564;SDS011;38460;53.106;7.004;2023-02-24T00:11:55;7.07;;;2.45;;
52564;SDS011;38460;53.106;7.004;2023-02-24T00:14:33;6.47;;;1.85;;
52564;SDS011;38460;53.106;7.004;2023-02-24T00:17:00;6.35;;;2.05;;
52564;SDS011;38460;53.106;7.004;2023-02-24T00:19:26;7.63;;;1.55;;
52564;SDS011;38460;53.106;7.004;2023-02-24T00:21:56;9.77;;;2.20;;
52564;SDS011;38460;53.106;7.004;2023-02-24T00:24:24;4.10;;;1.70;;
52564;SDS011;38460;53.106;7.004;2023-02-24T00:26:53;4.47;;;1.60;;
52564;SDS011;38460;53.106;7.004;2023-02-24T00:29:21;8.20;;;1.70;;
52564;SDS011;38460;53.106;7.004;2023-02-24T00:31:52;4.70;;;1.60;;
52564;SDS011;38460;53.106;7.004;2023-02-24T00:34:27;4.50;;;1.70;;
52564;SDS011;38460;53.106;7.004;2023-02-24T00:36:54;7.00;;;2.50;;
52564;SDS011;38460;53.106;7.004;2023-02-24T00:39:21;5.70;;;1.48;;
52564;SDS011;38460;53.106;7.004;2023-02-24T00:41:52;6.07;;;2.47;;
52564;SDS011;38460;53.106;7.004;2023-02-24T00:44:22;7.18;;;1.85;;
52564;SDS011;38460;53.106;7.004;2023-02-24T00:46:48;7.68;;;1.90;;
52564;SDS011;38460;53.106;7.004;2023-02-24T00:49:17;6.68;;;2.05;;
52564;SDS011;38460;53.106;7.004;2023-02-24T00:51:44;4.25;;;2.10;;
52564;SDS011;38460;53.106;7.004;2023-02-24T00:54:12;5.30;;;1.80;;
52564;SDS011;38460;53.106;7.004;2023-02-24T00:56:44;6.70;;;1.75;;
52564;SDS011;38460;53.106;7.004;2023-02-24T00:59:12;5.75;;;2.25;;
52564;SDS011;38460;53.106;7.004;2023-02-24T01:01:40;5.55;;;1.85;;
52564;SDS011;38460;53.106;7.004;2023-02-24T01:04:09;5.43;;;2.05;;
52564;SDS011;38460;53.106;7.004;2023-02-24T01:06:46;7.35;;;2.45;;
52564;SDS011;38460;53.106;7.004;2023-02-24T01:09:15;5.18;;;2.05;;
52564;SDS011;38460;53.106;7.004;2023-02-24T01:11:45;5.68;;;1.98;;
52564;SDS011;38460;53.106;7.004;2023-02-24T01:14:32;7.15;;;2.28;;
52564;SDS011;38460;53.106;7.004;2023-02-24T01:16:59;6.70;;;2.60;;
52564;SDS011;38460;53.106;7.004;2023-02-24T01:19:27;6.35;;;3.00;;
52564;SDS011;38460;53.106;7.004;2023-02-24T01:21:54;5.93;;;2.45;;
52564;SDS011;38460;53.106;7.004;2023-02-24T01:24:22;7.97;;;2.20;;
52564;SDS011;38460;53.106;7.004;2023-02-24T01:26:52;5.70;;;2.40;;
52564;SDS011;38460;53.106;7.004;2023-02-24T01:29:18;4.80;;;1.80;;
52564;SDS011;38460;53.106;7.004;2023-02-24T01:31:46;6.30;;;2.13;;
52564;SDS011;38460;53.106;7.004;2023-02-24T01:34:14;6.40;;;2.22;;
52564;SDS011;38460;53.106;7.004;2023-02-24T01:36:41;5.15;;;2.35;;
52564;SDS011;38460;53.106;7.004;2023-02-24T01:39:08;6.57;;;2.50;;
52564;SDS011;38460;53.106;7.004;2023-02-24T01:41:39;6.03;;;2.28;;
52564;SDS011;38460;53.106;7.004;2023-02-24T01:46:42;5.75;;;1.65;;
52564;SDS011;38460;53.106;7.004;2023-02-24T01:49:17;6.03;;;1.40;;
52564;SDS011;38460;53.106;7.004;2023-02-24T01:51:54;5.97;;;1.92;;
52564;SDS011;38460;53.106;7.004;2023-02-24T01:54:29;5.03;;;1.75;;
52564;SDS011;38460;53.106;7.004;2023-02-24T01:57:03;8.52;;;2.03;;
52564;SDS011;38460;53.106;7.004;2023-02-24T01:59:32;6.30;;;2.17;;
52564;SDS011;38460;53.106;7.004;2023-02-24T02:01:59;5.25;;;1.77;;
52564;SDS011;38460;53.106;7.004;2023-02-24T02:04:35;6.63;;;1.92;;
52564;SDS011;38460;53.106;7.004;2023-02-24T02:07:23;8.35;;;1.77;;
52564;SDS011;38460;53.106;7.004;2023-02-24T02:09:51;3.58;;;1.40;;
52564;SDS011;38460;53.106;7.004;2023-02-24T02:12:19;5.22;;;1.42;;
52564;SDS011;38460;53.106;7.004;2023-02-24T02:14:47;4.80;;;1.90;;
52564;SDS011;38460;53.106;7.004;2023-02-24T02:22:48;4.82;;;1.60;;
52564;SDS011;38460;53.106;7.004;2023-02-24T02:25:46;5.78;;;1.63;;
52564;SDS011;38460;53.106;7.004;2023-02-24T02:28:31;4.70;;;1.50;;
52564;SDS011;38460;53.106;7.004;2023-02-24T02:31:33;5.40;;;1.90;;
52564;SDS011;38460;53.106;7.004;2023-02-24T02:45:23;8.90;;;2.58;;
52564;SDS011;38460;53.106;7.004;2023-02-24T02:48:00;4.10;;;1.45;;
52564;SDS011;38460;53.106;7.004;2023-02-24T02:50:47;6.45;;;1.70;;
52564;SDS011;38460;53.106;7.004;2023-02-24T02:56:17;4.97;;;2.05;;
52564;SDS011;38460;53.106;7.004;2023-02-24T02:58:57;4.47;;;2.10;;
52564;SDS011;38460;53.106;7.004;2023-02-24T03:01:30;6.72;;;1.90;;
52564;SDS011;38460;53.106;7.004;2023-02-24T03:04:02;5.75;;;1.60;;
52564;SDS011;38460;53.106;7.004;2023-02-24T03:06:32;7.32;;;1.92;;
52564;SDS011;38460;53.106;7.004;2023-02-24T03:09:09;4.35;;;2.00;;
52564;SDS011;38460;53.106;7.004;2023-02-24T03:11:40;7.47;;;2.00;;
52564;SDS011;38460;53.106;7.004;2023-02-24T03:14:08;7.43;;;2.10;;
52564;SDS011;38460;53.106;7.004;2023-02-24T03:16:39;4.63;;;1.65;;
52564;SDS011;38460;53.106;7.004;2023-02-24T03:19:07;4.40;;;1.33;;
52564;SDS011;38460;53.106;7.004;2023-02-24T03:21:38;6.45;;;1.75;;
52564;SDS011;38460;53.106;7.004;2023-02-24T03:34:53;6.80;;;1.87;;
52564;SDS011;38460;53.106;7.004;2023-02-24T03:37:24;9.63;;;1.75;;
52564;SDS011;38460;53.106;7.004;2023-02-24T03:39:53;8.75;;;1.75;;
52564;SDS011;38460;53.106;7.004;2023-02-24T03:42:22;6.30;;;1.92;;
52564;SDS011;38460;53.106;7.004;2023-02-24T03:44:50;7.25;;;1.60;;
52564;SDS011;38460;53.106;7.004;2023-02-24T03:47:16;6.47;;;1.60;;
52564;SDS011;38460;53.106;7.004;2023-02-24T03:49:45;5.32;;;1.67;;
52564;SDS011;38460;53.106;7.004;2023-02-24T03:52:16;8.18;;;1.80;;
52564;SDS011;38460;53.106;7.004;2023-02-24T03:54:49;6.60;;;1.73;;
52564;SDS011;38460;53.106;7.004;2023-02-24T04:03:39;8.13;;;2.20;;
52564;SDS011;38460;53.106;7.004;2023-02-24T04:06:12;5.28;;;1.67;;
52564;SDS011;38460;53.106;7.004;2023-02-24T04:08:41;5.80;;;1.77;;
52564;SDS011;38460;53.106;7.004;2023-02-24T04:11:18;14.18;;;2.38;;
52564;SDS011;38460;53.106;7.004;2023-02-24T04:13:50;4.88;;;1.90;;
52564;SDS011;38460;53.106;7.004;2023-02-24T04:16:38;4.57;;;1.80;;
52564;SDS011;38460;53.106;7.004;2023-02-24T04:19:10;6.00;;;1.85;;
52564;SDS011;38460;53.106;7.004;2023-02-24T04:21:41;5.20;;;1.52;;
52564;SDS011;38460;53.106;7.004;2023-02-24T04:24:10;5.45;;;1.65;;
52564;SDS011;38460;53.106;7.004;2023-02-24T04:26:40;3.38;;;1.40;;
52564;SDS011;38460;53.106;7.004;2023-02-24T04:29:10;5.78;;;1.60;;
52564;SDS011;38460;53.106;7.004;2023-02-24T04:34:25;4.68;;;1.70;;
52564;SDS011;38460;53.106;7.004;2023-02-24T04:36:56;7.43;;;2.10;;
52564;SDS011;38460;53.106;7.004;2023-02-24T04:39:23;5.07;;;1.35;;
52564;SDS011;38460;53.106;7.004;2023-02-24T04:41:50;6.03;;;1.58;;
52564;SDS011;38460;53.106;7.004;2023-02-24T04:44:16;6.22;;;1.52;;
52564;SDS011;38460;53.106;7.004;2023-02-24T04:46:47;10.23;;;2.15;;
52564;SDS011;38460;53.106;7.004;2023-02-24T04:49:15;5.85;;;1.65;;
52564;SDS011;38460;53.106;7.004;2023-02-24T04:51:42;8.13;;;1.55;;
52564;SDS011;38460;53.106;7.004;2023-02-24T04:54:09;3.22;;;1.52;;
52564;SDS011;38460;53.106;7.004;2023-02-24T04:56:48;8.50;;;1.70;;
52564;SDS011;38460;53.106;7.004;2023-02-24T04:59:18;6.05;;;1.50;;
52564;SDS011;38460;53.106;7.004;2023-02-24T05:01:45;3.95;;;1.40;;
52564;SDS011;38460;53.106;7.004;2023-02-24T05:04:15;8.88;;;1.90;;
52564;SDS011;38460;53.106;7.004;2023-02-24T05:06:42;4.50;;;1.42;;
52564;SDS011;38460;53.106;7.004;2023-02-24T05:09:09;4.70;;;1.52;;
52564;SDS011;38460;53.106;7.004;2023-02-24T05:11:40;5.65;;;1.70;;
52564;SDS011;38460;53.106;7.004;2023-02-24T05:14:08;5.72;;;2.08;;
52564;SDS011;38460;53.106;7.004;2023-02-24T05:16:39;3.42;;;1.45;;
52564;SDS011;38460;53.106;7.004;2023-02-24T05:19:07;4.53;;;1.52;;
52564;SDS011;38460;53.106;7.004;2023-02-24T05:21:55;4.03;;;1.60;;
52564;SDS011;38460;53.106;7.004;2023-02-24T05:24:24;6.03;;;1.70;;
52564;SDS011;38460;53.106;7.004;2023-02-24T05:26:52;5.00;;;1.50;;
52564;SDS011;38460;53.106;7.004;2023-02-24T05:29:25;8.32;;;1.90;;
52564;SDS011;38460;53.106;7.004;2023-02-24T05:31:53;4.82;;;1.92;;
52564;SDS011;38460;53.106;7.004;2023-02-24T05:34:23;5.82;;;1.50;;
52564;SDS011;38460;53.106;7.004;2023-02-24T05:36:49;4.70;;;1.88;;
52564;SDS011;38460;53.106;7.004;2023-02-24T05:39:15;6.93;;;1.73;;
52564;SDS011;38460;53.106;7.004;2023-02-24T05:41:44;6.63;;;2.03;;
52564;SDS011;38460;53.106;7.004;2023-02-24T05:44:16;4.90;;;1.20;;
52564;SDS011;38460;53.106;7.004;2023-02-24T05:46:51;5.32;;;1.52;;
52564;SDS011;38460;53.106;7.004;2023-02-24T05:49:23;7.25;;;1.77;;
52564;SDS011;38460;53.106;7.004;2023-02-24T05:51:58;5.55;;;1.45;;
52564;SDS011;38460;53.106;7.004;2023-02-24T05:54:37;7.57;;;1.98;;
52564;SDS011;38460;53.106;7.004;2023-02-24T05:57:11;5.53;;;1.70;;
52564;SDS011;38460;53.106;7.004;2023-02-24T05:59:46;8.68;;;2.22;;
52564;SDS011;38460;53.106;7.004;2023-02-24T06:02:15;4.88;;;1.50;;
52564;SDS011;38460;53.106;7.004;2023-02-24T06:04:51;5.43;;;1.92;;
52564;SDS011;38460;53.106;7.004;2023-02-24T06:07:25;5.78;;;1.50;;
52564;SDS011;38460;53.106;7.004;2023-02-24T06:09:56;5.60;;;1.38;;
52564;SDS011;38460;53.106;7.004;2023-02-24T06:12:24;5.88;;;1.98;;
52564;SDS011;38460;53.106;7.004;2023-02-24T06:14:52;4.97;;;1.70;;
52564;SDS011;38460;53.106;7.004;2023-02-24T06:17:18;6.07;;;1.90;;
52564;SDS011;38460;53.106;7.004;2023-02-24T06:19:44;6.03;;;1.70;;
52564;SDS011;38460;53.106;7.004;2023-02-24T06:22:13;7.15;;;2.10;;
52564;SDS011;38460;53.106;7.004;2023-02-24T06:24:43;7.20;;;2.03;;
52564;SDS011;38460;53.106;7.004;2023-02-24T06:27:13;8.23;;;3.03;;
52564;SDS011;38460;53.106;7.004;2023-02-24T06:29:43;5.90;;;1.63;;
52564;SDS011;38460;53.106;7.004;2023-02-24T06:32:10;9.05;;;2.17;;
52564;SDS011;38460;53.106;7.004;2023-02-24T06:34:37;7.03;;;1.90;;
52564;SDS011;38460;53.106;7.004;2023-02-24T06:37:03;6.20;;;1.88;;
52564;SDS011;38460;53.106;7.004;2023-02-24T06:39:33;9.75;;;2.40;;
52564;SDS011;38460;53.106;7.004;2023-02-24T06:41:59;8.15;;;1.80;;
52564;SDS011;38460;53.106;7.004;2023-02-24T06:44:28;7.63;;;2.00;;
52564;SDS011;38460;53.106;7.004;2023-02-24T06:46:58;5.65;;;1.95;;
52564;SDS011;38460;53.106;7.004;2023-02-24T06:49:24;5.43;;;1.80;;
52564;SDS011;38460;53.106;7.004;2023-02-24T06:51:54;5.68;;;2.00;;
52564;SDS011;38460;53.106;7.004;2023-02-24T06:54:22;7.82;;;2.30;;
52564;SDS011;38460;53.106;7.004;2023-02-24T06:56:53;5.35;;;2.00;;
52564;SDS011;38460;53.106;7.004;2023-02-24T06:59:19;6.03;;;2.30;;
52564;SDS011;38460;53.106;7.004;2023-02-24T07:01:56;5.43;;;2.00;;
52564;SDS011;38460;53.106;7.004;2023-02-24T07:04:23;8.45;;;1.98;;
52564;SDS011;38460;53.106;7.004;2023-02-24T07:06:50;7.15;;;1.98;;
52564;SDS011;38460;53.106;7.004;2023-02-24T07:09:20;5.03;;;2.30;;
52564;SDS011;38460;53.106;7.004;2023-02-24T07:11:48;15.50;;;2.60;;
52564;SDS011;38460;53.106;7.004;2023-02-24T07:14:21;10.95;;;2.60;;
52564;SDS011;38460;53.106;7.004;2023-02-24T07:16:51;9.23;;;2.80;;
52564;SDS011;38460;53.106;7.004;2023-02-24T07:19:26;6.80;;;2.38;;
52564;SDS011;38460;53.106;7.004;2023-02-24T07:21:59;6.20;;;2.50;;
52564;SDS011;38460;53.106;7.004;2023-02-24T07:24:32;9.02;;;2.88;;
52564;SDS011;38460;53.106;7.004;2023-02-24T07:27:13;8.02;;;2.63;;
52564;SDS011;38460;53.106;7.004;2023-02-24T07:29:46;12.43;;;3.03;;
52564;SDS011;38460;53.106;7.004;2023-02-24T07:32:14;9.43;;;3.45;;
52564;SDS011;38460;53.106;7.004;2023-02-24T07:34:41;10.07;;;3.30;;
52564;SDS011;38460;53.106;7.004;2023-02-24T07:37:08;8.85;;;3.95;;
52564;SDS011;38460;53.106;7.004;2023-02-24T07:39:35;9.27;;;3.40;;
52564;SDS011;38460;53.106;7.004;2023-02-24T07:42:03;10.57;;;3.58;;
52564;SDS011;38460;53.106;7.004;2023-02-24T07:44:30;13.18;;;4.03;;
52564;SDS011;38460;53.106;7.004;2023-02-24T07:46:57;9.25;;;4.03;;
52564;SDS011;38460;53.106;7.004;2023-02-24T07:49:23;11.15;;;4.60;;
52564;SDS011;38460;53.106;7.004;2023-02-24T07:51:51;11.77;;;4.25;;
52564;SDS011;38460;53.106;7.004;2023-02-24T07:54:22;9.63;;;4.35;;
52564;SDS011;38460;53.106;7.004;2023-02-24T07:56:49;9.18;;;3.88;;
52564;SDS011;38460;53.106;7.004;2023-02-24T07:59:29;9.27;;;4.53;;
52564;SDS011;38460;53.106;7.004;2023-02-24T08:01:56;9.45;;;5.05;;
52564;SDS011;38460;53.106;7.004;2023-02-24T08:04:24;8.90;;;4.45;;
52564;SDS011;38460;53.106;7.004;2023-02-24T08:06:54;8.68;;;4.40;;
52564;SDS011;38460;53.106;7.004;2023-02-24T08:09:24;11.88;;;4.60;;
52564;SDS011;38460;53.106;7.004;2023-02-24T08:12:10;9.68;;;4.97;;
52564;SDS011;38460;53.106;7.004;2023-02-24T08:14:41;9.05;;;4.43;;
52564;SDS011;38460;53.106;7.004;2023-02-24T08:17:18;9.45;;;4.05;;
52564;SDS011;38460;53.106;7.004;2023-02-24T08:19:48;10.88;;;4.88;;
52564;SDS011;38460;53.106;7.004;2023-02-24T08:22:25;13.35;;;5.47;;
52564;SDS011;38460;53.106;7.004;2023-02-24T08:27:25;11.10;;;4.63;;
52564;SDS011;38460;53.106;7.004;2023-02-24T08:29:54;9.77;;;4.43;;
52564;SDS011;38460;53.106;7.004;2023-02-24T08:32:33;10.70;;;4.80;;
52564;SDS011;38460;53.106;7.004;2023-02-24T08:35:14;18.23;;;6.55;;
52564;SDS011;38460;53.106;7.004;2023-02-24T08:37:46;12.90;;;5.22;;
52564;SDS011;38460;53.106;7.004;2023-02-24T08:43:06;12.50;;;4.47;;
52564;SDS011;38460;53.106;7.004;2023-02-24T08:45:44;16.55;;;4.72;;
52564;SDS011;38460;53.106;7.004;2023-02-24T08:48:16;9.57;;;4.72;;
52564;SDS011;38460;53.106;7.004;2023-02-24T08:50:51;11.32;;;4.10;;
52564;SDS011;38460;53.106;7.004;2023-02-24T08:53:19;10.13;;;4.85;;
52564;SDS011;38460;53.106;7.004;2023-02-24T08:55:45;14.95;;;4.32;;
52564;SDS011;38460;53.106;7.004;2023-02-24T08:58:16;14.07;;;4.57;;
52564;SDS011;38460;53.106;7.004;2023-02-24T09:00:57;10.65;;;4.03;;
52564;SDS011;38460;53.106;7.004;2023-02-24T09:03:24;9.18;;;4.68;;
52564;SDS011;38460;53.106;7.004;2023-02-24T09:06:05;12.82;;;5.03;;
52564;SDS011;38460;53.106;7.004;2023-02-24T09:08:36;14.38;;;4.60;;
52564;SDS011;38460;53.106;7.004;2023-02-24T09:11:05;12.02;;;4.38;;
52564;SDS011;38460;53.106;7.004;2023-02-24T09:13:38;12.05;;;4.47;;
52564;SDS011;38460;53.106;7.004;2023-02-24T09:16:19;8.05;;;3.80;;
52564;SDS011;38460;53.106;7.004;2023-02-24T09:18:48;9.45;;;4.05;;
52564;SDS011;38460;53.106;7.004;2023-02-24T09:21:35;11.57;;;4.15;;
52564;SDS011;38460;53.106;7.004;2023-02-24T09:24:13;13.23;;;4.93;;
52564;SDS011;38460;53.106;7.004;2023-02-24T09:26:51;12.10;;;5.38;;
52564;SDS011;38460;53.106;7.004;2023-02-24T09:29:23;10.18;;;4.35;;
52564;SDS011;38460;53.106;7.004;2023-02-24T09:32:02;7.85;;;3.85;;
52564;SDS011;38460;53.106;7.004;2023-02-24T09:34:33;8.90;;;4.85;;
52564;SDS011;38460;53.106;7.004;2023-02-24T09:37:00;8.57;;;4.03;;
52564;SDS011;38460;53.106;7.004;2023-02-24T09:39:28;14.02;;;4.80;;
52564;SDS011;38460;53.106;7.004;2023-02-24T09:42:30;14.73;;;4.70;;
52564;SDS011;38460;53.106;7.004;2023-02-24T09:45:20;6.75;;;4.03;;
52564;SDS011;38460;53.106;7.004;2023-02-24T09:47:57;15.57;;;6.43;;
52564;SDS011;38460;53.106;7.004;2023-02-24T09:50:34;8.88;;;5.00;;
52564;SDS011;38460;53.106;7.004;2023-02-24T09:53:25;13.48;;;4.57;;
52564;SDS011;38460;53.106;7.004;2023-02-24T09:58:41;9.95;;;4.57;;
52564;SDS011;38460;53.106;7.004;2023-02-24T10:04:20;8.30;;;4.30;;
52564;SDS011;38460;53.106;7.004;2023-02-24T10:12:15;8.18;;;3.72;;
52564;SDS011;38460;53.106;7.004;2023-02-24T10:14:47;9.80;;;5.03;;
52564;SDS011;38460;53.106;7.004;2023-02-24T10:17:45;11.93;;;4.85;;
52564;SDS011;38460;53.106;7.004;2023-02-24T10:20:23;6.15;;;3.05;;
52564;SDS011;38460;53.106;7.004;2023-02-24T10:26:04;11.55;;;4.07;;
52564;SDS011;38460;53.106;7.004;2023-02-24T10:28:59;6.10;;;2.88;;
52564;SDS011;38460;53.106;7.004;2023-02-24T10:31:51;9.32;;;3.38;;
52564;SDS011;38460;53.106;7.004;2023-02-24T10:34:31;10.93;;;4.72;;
52564;SDS011;38460;53.106;7.004;2023-02-24T10:36:58;9.80;;;3.85;;
52564;SDS011;38460;53.106;7.004;2023-02-24T10:39:31;13.57;;;4.63;;
52564;SDS011;38460;53.106;7.004;2023-02-24T10:42:01;14.93;;;4.65;;
52564;SDS011;38460;53.106;7.004;2023-02-24T10:44:48;18.23;;;5.57;;
52564;SDS011;38460;53.106;7.004;2023-02-24T10:47:19;19.55;;;5.18;;
52564;SDS011;38460;53.106;7.004;2023-02-24T10:49:58;12.77;;;4.95;;
52564;SDS011;38460;53.106;7.004;2023-02-24T10:52:28;23.30;;;6.75;;
52564;SDS011;38460;53.106;7.004;2023-02-24T10:55:13;27.55;;;5.68;;
52564;SDS011;38460;53.106;7.004;2023-02-24T10:57:59;19.60;;;5.40;;
52564;SDS011;38460;53.106;7.004;2023-02-24T11:00:43;20.27;;;5.05;;
52564;SDS011;38460;53.106;7.004;2023-02-24T11:03:40;18.95;;;5.95;;
52564;SDS011;38460;53.106;7.004;2023-02-24T11:06:46;16.02;;;5.53;;
52564;SDS011;38460;53.106;7.004;2023-02-24T11:09:20;17.38;;;4.95;;
52564;SDS011;38460;53.106;7.004;2023-02-24T11:11:54;21.85;;;5.82;;
52564;SDS011;38460;53.106;7.004;2023-02-24T11:17:48;18.02;;;5.28;;
52564;SDS011;38460;53.106;7.004;2023-02-24T11:20:25;22.83;;;5.93;;
52564;SDS011;38460;53.106;7.004;2023-02-24T11:23:00;14.55;;;4.10;;
52564;SDS011;38460;53.106;7.004;2023-02-24T11:25:40;22.33;;;4.40;;
52564;SDS011;38460;53.106;7.004;2023-02-24T11:41:58;24.17;;;5.18;;
52564;SDS011;38460;53.106;7.004;2023-02-24T11:50:18;19.02;;;5.72;;
52564;SDS011;38460;53.106;7.004;2023-02-24T11:52:57;17.60;;;4.57;;
52564;SDS011;38460;53.106;7.004;2023-02-24T11:55:37;14.50;;;4.15;;
52564;SDS011;38460;53.106;7.004;2023-02-24T11:58:49;16.80;;;4.28;;
52564;SDS011;38460;53.106;7.004;2023-02-24T12:01:02;17.48;;;4.05;;
52564;SDS011;38460;53.106;7.004;2023-02-24T12:06:47;16.77;;;4.68;;
52564;SDS011;38460;53.106;7.004;2023-02-24T12:09:32;19.45;;;5.05;;
52564;SDS011;38460;53.106;7.004;2023-02-24T12:12:16;20.05;;;5.63;;
52564;SDS011;38460;53.106;7.004;2023-02-24T12:14:49;16.77;;;4.70;;
52564;SDS011;38460;53.106;7.004;2023-02-24T12:17:32;15.13;;;6.15;;
52564;SDS011;38460;53.106;7.004;2023-02-24T12:23:56;13.43;;;4.65;;
52564;SDS011;38460;53.106;7.004;2023-02-24T12:26:18;12.68;;;3.60;;
52564;SDS011;38460;53.106;7.004;2023-02-24T12:35:13;51.13;;;28.67;;
52564;SDS011;38460;53.106;7.004;2023-02-24T12:40:29;7.32;;;2.90;;
52564;SDS011;38460;53.106;7.004;2023-02-24T12:45:44;9.77;;;2.03;;
52564;SDS011;38460;53.106;7.004;2023-02-24T12:53:45;10.40;;;3.88;;
52564;SDS011;38460;53.106;7.004;2023-02-24T12:58:40;13.68;;;3.20;;
52564;SDS011;38460;53.106;7.004;2023-02-24T13:03:53;8.35;;;2.80;;
52564;SDS011;38460;53.106;7.004;2023-02-24T13:09:11;9.75;;;2.75;;
52564;SDS011;38460;53.106;7.004;2023-02-24T13:14:28;9.32;;;3.05;;
52564;SDS011;38460;53.106;7.004;2023-02-24T13:19:34;10.43;;;2.45;;
52564;SDS011;38460;53.106;7.004;2023-02-24T13:22:18;13.95;;;4.03;;
52564;SDS011;38460;53.106;7.004;2023-02-24T13:29:54;7.55;;;1.83;;
52564;SDS011;38460;53.106;7.004;2023-02-24T13:32:31;7.15;;;1.75;;
52564;SDS011;38460;53.106;7.004;2023-02-24T13:35:00;3.63;;;1.88;;
52564;SDS011;38460;53.106;7.004;2023-02-24T13:37:30;5.20;;;1.17;;
52564;SDS011;38460;53.106;7.004;2023-02-24T13:39:59;3.63;;;1.40;;
52564;SDS011;38460;53.106;7.004;2023-02-24T13:42:28;5.88;;;1.38;;
52564;SDS011;38460;53.106;7.004;2023-02-24T13:53:30;4.70;;;1.50;;
52564;SDS011;38460;53.106;7.004;2023-02-24T14:02:27;5.72;;;1.60;;
52564;SDS011;38460;53.106;7.004;2023-02-24T14:04:55;4.30;;;1.55;;
52564;SDS011;38460;53.106;7.004;2023-02-24T14:07:24;8.63;;;2.63;;
52564;SDS011;38460;53.106;7.004;2023-02-24T14:09:56;5.28;;;1.40;;
52564;SDS011;38460;53.106;7.004;2023-02-24T14:12:29;5.00;;;1.58;;
52564;SDS011;38460;53.106;7.004;2023-02-24T14:14:58;4.80;;;1.83;;
52564;SDS011;38460;53.106;7.004;2023-02-24T14:17:32;5.30;;;1.75;;
52564;SDS011;38460;53.106;7.004;2023-02-24T14:22:43;6.03;;;1.80;;
52564;SDS011;38460;53.106;7.004;2023-02-24T14:25:17;7.35;;;1.70;;
52564;SDS011;38460;53.106;7.004;2023-02-24T14:27:44;5.45;;;1.42;;
52564;SDS011;38460;53.106;7.004;2023-02-24T14:30:25;8.10;;;2.05;;
52564;SDS011;38460;53.106;7.004;2023-02-24T14:32:51;8.88;;;2.60;;
52564;SDS011;38460;53.106;7.004;2023-02-24T14:35:19;13.13;;;2.30;;
52564;SDS011;38460;53.106;7.004;2023-02-24T14:37:49;7.32;;;2.00;;
52564;SDS011;38460;53.106;7.004;2023-02-24T14:40:14;8.85;;;2.40;;
52564;SDS011;38460;53.106;7.004;2023-02-24T14:42:47;6.68;;;1.95;;
52564;SDS011;38460;53.106;7.004;2023-02-24T14:45:14;7.45;;;2.00;;
52564;SDS011;38460;53.106;7.004;2023-02-24T14:47:42;10.07;;;1.92;;
52564;SDS011;38460;53.106;7.004;2023-02-24T14:50:13;7.47;;;1.95;;
52564;SDS011;38460;53.106;7.004;2023-02-24T14:52:46;9.90;;;2.40;;
52564;SDS011;38460;53.106;7.004;2023-02-24T14:55:35;11.98;;;2.38;;
52564;SDS011;38460;53.106;7.004;2023-02-24T15:00:49;5.40;;;1.10;;
52564;SDS011;38460;53.106;7.004;2023-02-24T15:03:36;5.68;;;1.50;;
52564;SDS011;38460;53.106;7.004;2023-02-24T15:06:10;5.35;;;1.70;;
52564;SDS011;38460;53.106;7.004;2023-02-24T15:08:42;5.65;;;1.50;;
52564;SDS011;38460;53.106;7.004;2023-02-24T15:13:41;6.95;;;2.35;;
52564;SDS011;38460;53.106;7.004;2023-02-24T15:16:11;9.40;;;1.95;;
52564;SDS011;38460;53.106;7.004;2023-02-24T15:18:42;10.90;;;3.22;;
52564;SDS011;38460;53.106;7.004;2023-02-24T15:21:17;11.77;;;3.13;;
52564;SDS011;38460;53.106;7.004;2023-02-24T15:24:17;10.68;;;2.55;;
52564;SDS011;38460;53.106;7.004;2023-02-24T15:29:39;14.45;;;4.72;;
52564;SDS011;38460;53.106;7.004;2023-02-24T15:32:13;18.15;;;5.43;;
52564;SDS011;38460;53.106;7.004;2023-02-24T15:34:43;18.85;;;3.67;;
52564;SDS011;38460;53.106;7.004;2023-02-24T15:37:14;13.50;;;3.88;;
52564;SDS011;38460;53.106;7.004;2023-02-24T15:39:46;12.70;;;3.40;;
52564;SDS011;38460;53.106;7.004;2023-02-24T15:44:49;13.38;;;3.55;;
52564;SDS011;38460;53.106;7.004;2023-02-24T15:47:23;11.90;;;3.40;;
52564;SDS011;38460;53.106;7.004;2023-02-24T15:49:54;10.15;;;3.10;;
52564;SDS011;38460;53.106;7.004;2023-02-24T15:52:23;11.23;;;2.53;;
52564;SDS011;38460;53.106;7.004;2023-02-24T15:54:52;10.52;;;2.67;;
52564;SDS011;38460;53.106;7.004;2023-02-24T15:57:19;9.02;;;2.03;;
52564;SDS011;38460;53.106;7.004;2023-02-24T15:59:45;9.95;;;2.35;;
52564;SDS011;38460;53.106;7.004;2023-02-24T16:02:13;6.68;;;1.98;;
52564;SDS011;38460;53.106;7.004;2023-02-24T16:04:42;12.82;;;3.35;;
52564;SDS011;38460;53.106;7.004;2023-02-24T16:07:21;11.88;;;4.20;;
52564;SDS011;38460;53.106;7.004;2023-02-24T16:09:50;13.60;;;3.70;;
52564;SDS011;38460;53.106;7.004;2023-02-24T16:12:19;16.02;;;4.72;;
52564;SDS011;38460;53.106;7.004;2023-02-24T16:14:52;13.50;;;3.63;;
52564;SDS011;38460;53.106;7.004;2023-02-24T16:20:06;15.13;;;3.40;;
52564;SDS011;38460;53.106;7.004;2023-02-24T16:22:42;18.65;;;4.22;;
52564;SDS011;38460;53.106;7.004;2023-02-24T16:25:09;14.23;;;3.78;;
52564;SDS011;38460;53.106;7.004;2023-02-24T16:27:39;8.68;;;2.95;;
52564;SDS011;38460;53.106;7.004;2023-02-24T16:30:05;14.80;;;3.60;;
52564;SDS011;38460;53.106;7.004;2023-02-24T16:32:31;9.25;;;3.20;;
52564;SDS011;38460;53.106;7.004;2023-02-24T16:34:57;8.07;;;2.42;;
52564;SDS011;38460;53.106;7.004;2023-02-24T16:37:25;9.32;;;2.72;;
52564;SDS011;38460;53.106;7.004;2023-02-24T16:39:52;16.23;;;3.35;;
52564;SDS011;38460;53.106;7.004;2023-02-24T16:42:18;11.35;;;2.85;;
52564;SDS011;38460;53.106;7.004;2023-02-24T16:44:46;10.25;;;3.20;;
52564;SDS011;38460;53.106;7.004;2023-02-24T16:47:15;12.32;;;2.95;;
52564;SDS011;38460;53.106;7.004;2023-02-24T16:49:44;10.30;;;2.87;;
52564;SDS011;38460;53.106;7.004;2023-02-24T16:52:13;10.40;;;2.90;;
52564;SDS011;38460;53.106;7.004;2023-02-24T16:54:43;10.95;;;3.00;;
52564;SDS011;38460;53.106;7.004;2023-02-24T16:57:09;12.35;;;3.42;;
52564;SDS011;38460;53.106;7.004;2023-02-24T16:59:35;13.38;;;3.53;;
52564;SDS011;38460;53.106;7.004;2023-02-24T17:02:01;14.80;;;3.70;;
52564;SDS011;38460;53.106;7.004;2023-02-24T17:04:27;13.30;;;3.92;;
52564;SDS011;38460;53.106;7.004;2023-02-24T17:06:53;14.98;;;3.25;;
52564;SDS011;38460;53.106;7.004;2023-02-24T17:09:19;13.55;;;3.67;;
52564;SDS011;38460;53.106;7.004;2023-02-24T17:11:45;10.65;;;3.58;;
52564;SDS011;38460;53.106;7.004;2023-02-24T17:14:18;13.38;;;3.88;;
52564;SDS011;38460;53.106;7.004;2023-02-24T17:16:45;13.02;;;3.80;;
52564;SDS011;38460;53.106;7.004;2023-02-24T17:19:12;18.40;;;3.97;;
52564;SDS011;38460;53.106;7.004;2023-02-24T17:21:39;13.40;;;3.65;;
52564;SDS011;38460;53.106;7.004;2023-02-24T17:24:07;12.88;;;3.60;;
52564;SDS011;38460;53.106;7.004;2023-02-24T17:26:39;15.98;;;3.78;;
52564;SDS011;38460;53.106;7.004;2023-02-24T17:29:05;16.35;;;4.55;;
52564;SDS011;38460;53.106;7.004;2023-02-24T17:31:31;15.95;;;4.45;;
52564;SDS011;38460;53.106;7.004;2023-02-24T17:33:58;14.75;;;3.60;;
52564;SDS011;38460;53.106;7.004;2023-02-24T17:36:25;11.23;;;3.25;;
52564;SDS011;38460;53.106;7.004;2023-02-24T17:38:51;16.52;;;3.63;;
52564;SDS011;38460;53.106;7.004;2023-02-24T17:41:18;13.32;;;3.63;;
52564;SDS011;38460;53.106;7.004;2023-02-24T17:43:43;11.38;;;3.38;;
52564;SDS011;38460;53.106;7.004;2023-02-24T17:46:09;9.43;;;3.28;;
52564;SDS011;38460;53.106;7.004;2023-02-24T17:48:35;12.32;;;3.60;;
52564;SDS011;38460;53.106;7.004;2023-02-24T17:51:01;14.75;;;3.50;;